sensor_id;sensor_type;location;lat;lon;timestamp;pressure;altitude;pressure_sealevel;temperature;humidity
5126;BME280;63008;53.112;8.896;2023-04-15T00:01:51;100994.97;;;7.11;87.22
5126;BME280;63008;53.112;8.896;2023-04-15T00:03:53;100993.88;;;7.12;87.11
5126;BME280;63008;53.112;8.896;2023-04-15T00:05:54;100995.28;;;7.10;87.24
5126;BME280;63008;53.112;8.896;2023-04-15T00:07:56;101001.75;;;7.00;87.82
5126;BME280;63008;53.112;8.896;2023-04-15T00:09:58;100994.56;;;7.04;88.02
5126;BME280;63008;53.112;8.896;2023-04-15T00:11:59;101001.88;;;6.95;88.48
5126;BME280;63008;53.112;8.896;2023-04-15T00:14:00;100990.84;;;7.00;88.82
5126;BME280;63008;53.112;8.896;2023-04-15T00:16:01;100992.69;;;6.91;88.84
5126;BME280;63008;53.112;8.896;2023-04-15T00:18:02;100989.34;;;6.94;89.40
5126;BME280;63008;53.112;8.896;2023-04-15T00:20:04;100988.50;;;6.94;89.32
5126;BME280;63008;53.112;8.896;2023-04-15T00:22:06;100990.94;;;6.95;89.15
5126;BME280;63008;53.112;8.896;2023-04-15T00:24:07;100986.69;;;7.03;89.46
5126;BME280;63008;53.112;8.896;2023-04-15T00:26:08;100993.88;;;6.99;89.13
5126;BME280;63008;53.112;8.896;2023-04-15T00:28:09;100982.56;;;7.05;89.11
5126;BME280;63008;53.112;8.896;2023-04-15T00:30:10;100983.16;;;7.02;89.42
5126;BME280;63008;53.112;8.896;2023-04-15T00:32:11;100991.44;;;6.97;89.32
5126;BME280;63008;53.112;8.896;2023-04-15T00:34:13;100984.19;;;7.06;89.51
5126;BME280;63008;53.112;8.896;2023-04-15T00:36:14;100977.13;;;7.05;89.40
5126;BME280;63008;53.112;8.896;2023-04-15T00:38:15;100982.88;;;7.04;89.50
5126;BME280;63008;53.112;8.896;2023-04-15T00:40:18;100980.75;;;7.01;89.75
5126;BME280;63008;53.112;8.896;2023-04-15T00:42:19;100979.84;;;7.05;89.75
5126;BME280;63008;53.112;8.896;2023-04-15T00:44:21;100982.03;;;7.03;89.55
5126;BME280;63008;53.112;8.896;2023-04-15T00:46:22;100979.03;;;7.05;89.73
5126;BME280;63008;53.112;8.896;2023-04-15T00:48:23;100982.84;;;7.17;89.99
5126;BME280;63008;53.112;8.896;2023-04-15T00:50:24;100983.34;;;7.19;89.56
5126;BME280;63008;53.112;8.896;2023-04-15T00:52:25;100974.78;;;7.12;89.71
5126;BME280;63008;53.112;8.896;2023-04-15T00:54:26;100977.22;;;7.14;89.80
5126;BME280;63008;53.112;8.896;2023-04-15T00:56:27;100980.53;;;7.11;90.15
5126;BME280;63008;53.112;8.896;2023-04-15T00:58:29;100971.94;;;7.04;90.03
5126;BME280;63008;53.112;8.896;2023-04-15T01:00:29;100976.19;;;7.10;90.04
5126;BME280;63008;53.112;8.896;2023-04-15T01:02:30;100963.34;;;7.10;90.07
5126;BME280;63008;53.112;8.896;2023-04-15T01:04:32;100970.31;;;7.16;89.89
5126;BME280;63008;53.112;8.896;2023-04-15T01:06:33;100959.63;;;7.06;90.17
5126;BME280;63008;53.112;8.896;2023-04-15T01:08:34;100959.31;;;7.08;90.21
5126;BME280;63008;53.112;8.896;2023-04-15T01:10:35;100960.84;;;7.14;90.15
5126;BME280;63008;53.112;8.896;2023-04-15T01:12:36;100966.88;;;7.24;90.12
5126;BME280;63008;53.112;8.896;2023-04-15T01:14:37;100959.41;;;7.16;89.95
5126;BME280;63008;53.112;8.896;2023-04-15T01:16:38;100952.13;;;7.12;90.11
5126;BME280;63008;53.112;8.896;2023-04-15T01:18:40;100955.66;;;7.12;90.52
5126;BME280;63008;53.112;8.896;2023-04-15T01:20:41;100954.75;;;7.03;90.48
5126;BME280;63008;53.112;8.896;2023-04-15T01:22:42;100950.22;;;7.12;90.48
5126;BME280;63008;53.112;8.896;2023-04-15T01:24:58;100959.72;;;7.15;90.56
5126;BME280;63008;53.112;8.896;2023-04-15T01:27:01;100955.16;;;7.10;90.81
5126;BME280;63008;53.112;8.896;2023-04-15T01:29:03;100950.34;;;7.07;91.32
5126;BME280;63008;53.112;8.896;2023-04-15T01:31:12;100946.06;;;7.01;91.31
5126;BME280;63008;53.112;8.896;2023-04-15T01:33:13;100947.69;;;7.02;91.52
5126;BME280;63008;53.112;8.896;2023-04-15T01:35:14;100946.56;;;7.17;91.18
5126;BME280;63008;53.112;8.896;2023-04-15T01:37:15;100946.06;;;7.15;90.96
5126;BME280;63008;53.112;8.896;2023-04-15T01:39:16;100960.31;;;7.12;91.18
5126;BME280;63008;53.112;8.896;2023-04-15T01:41:23;100957.56;;;7.12;91.61
5126;BME280;63008;53.112;8.896;2023-04-15T01:43:25;100958.41;;;7.12;91.72
5126;BME280;63008;53.112;8.896;2023-04-15T01:45:26;100961.41;;;7.11;91.71
5126;BME280;63008;53.112;8.896;2023-04-15T01:47:27;100952.13;;;7.12;91.95
5126;BME280;63008;53.112;8.896;2023-04-15T01:49:28;100955.38;;;7.14;91.99
5126;BME280;63008;53.112;8.896;2023-04-15T01:51:29;100953.44;;;7.14;91.69
5126;BME280;63008;53.112;8.896;2023-04-15T01:53:30;100956.66;;;7.16;91.80
5126;BME280;63008;53.112;8.896;2023-04-15T01:55:32;100948.59;;;7.11;91.79
5126;BME280;63008;53.112;8.896;2023-04-15T01:57:33;100941.81;;;7.09;92.24
5126;BME280;63008;53.112;8.896;2023-04-15T01:59:34;100941.81;;;7.09;92.60
5126;BME280;63008;53.112;8.896;2023-04-15T02:01:35;100942.81;;;7.13;92.63
5126;BME280;63008;53.112;8.896;2023-04-15T02:03:36;100944.53;;;7.22;92.37
5126;BME280;63008;53.112;8.896;2023-04-15T02:05:39;100947.97;;;7.14;92.10
5126;BME280;63008;53.112;8.896;2023-04-15T02:07:40;100943.63;;;7.13;92.38
5126;BME280;63008;53.112;8.896;2023-04-15T02:09:41;100947.97;;;7.14;92.49
5126;BME280;63008;53.112;8.896;2023-04-15T02:11:43;100942.22;;;7.16;92.68
5126;BME280;63008;53.112;8.896;2023-04-15T02:13:44;100943.03;;;7.16;92.52
5126;BME280;63008;53.112;8.896;2023-04-15T02:15:49;100952.81;;;7.17;92.68
5126;BME280;63008;53.112;8.896;2023-04-15T02:17:50;100946.75;;;7.20;92.63
5126;BME280;63008;53.112;8.896;2023-04-15T02:19:52;100942.72;;;7.18;93.06
5126;BME280;63008;53.112;8.896;2023-04-15T02:21:53;100947.84;;;7.19;93.16
5126;BME280;63008;53.112;8.896;2023-04-15T02:23:54;100942.31;;;7.24;92.84
5126;BME280;63008;53.112;8.896;2023-04-15T02:25:55;100951.00;;;7.26;92.97
5126;BME280;63008;53.112;8.896;2023-04-15T02:27:56;100947.66;;;7.29;92.92
5126;BME280;63008;53.112;8.896;2023-04-15T02:29:57;100946.25;;;7.31;92.58
5126;BME280;63008;53.112;8.896;2023-04-15T02:31:58;100946.53;;;7.30;92.58
5126;BME280;63008;53.112;8.896;2023-04-15T02:33:59;100949.56;;;7.28;92.70
5126;BME280;63008;53.112;8.896;2023-04-15T02:36:03;100943.31;;;7.28;93.12
5126;BME280;63008;53.112;8.896;2023-04-15T02:38:04;100946.53;;;7.30;92.84
5126;BME280;63008;53.112;8.896;2023-04-15T02:40:08;100952.50;;;7.32;92.92
5126;BME280;63008;53.112;8.896;2023-04-15T02:42:11;100951.69;;;7.31;93.05
5126;BME280;63008;53.112;8.896;2023-04-15T02:44:13;100954.03;;;7.24;93.44
5126;BME280;63008;53.112;8.896;2023-04-15T02:46:14;100948.34;;;7.21;93.47
5126;BME280;63008;53.112;8.896;2023-04-15T02:48:14;100948.69;;;7.19;93.68
5126;BME280;63008;53.112;8.896;2023-04-15T02:50:17;100954.94;;;7.20;93.73
5126;BME280;63008;53.112;8.896;2023-04-15T02:52:18;100948.06;;;7.22;93.63
5126;BME280;63008;53.112;8.896;2023-04-15T02:54:20;100950.50;;;7.24;93.34
5126;BME280;63008;53.112;8.896;2023-04-15T02:56:22;100956.03;;;7.19;93.67
5126;BME280;63008;53.112;8.896;2023-04-15T02:58:23;100952.03;;;7.17;93.71
5126;BME280;63008;53.112;8.896;2023-04-15T03:00:27;100946.75;;;7.20;94.05
5126;BME280;63008;53.112;8.896;2023-04-15T03:02:37;100952.53;;;7.18;93.81
5126;BME280;63008;53.112;8.896;2023-04-15T03:04:39;100951.09;;;7.21;93.92
5126;BME280;63008;53.112;8.896;2023-04-15T03:06:40;100947.44;;;7.25;93.88
5126;BME280;63008;53.112;8.896;2023-04-15T03:08:41;100947.53;;;7.34;93.72
5126;BME280;63008;53.112;8.896;2023-04-15T03:10:42;100953.22;;;7.24;93.86
5126;BME280;63008;53.112;8.896;2023-04-15T03:12:43;100954.53;;;7.26;94.30
5126;BME280;63008;53.112;8.896;2023-04-15T03:14:44;100949.38;;;7.25;93.88
5126;BME280;63008;53.112;8.896;2023-04-15T03:16:45;100948.78;;;7.28;94.08
5126;BME280;63008;53.112;8.896;2023-04-15T03:18:46;100946.53;;;7.30;93.75
5126;BME280;63008;53.112;8.896;2023-04-15T03:20:47;100945.41;;;7.31;94.21
5126;BME280;63008;53.112;8.896;2023-04-15T03:22:48;100944.31;;;7.32;94.04
5126;BME280;63008;53.112;8.896;2023-04-15T03:24:49;100946.13;;;7.36;94.04
5126;BME280;63008;53.112;8.896;2023-04-15T03:26:50;100936.59;;;7.34;94.35
5126;BME280;63008;53.112;8.896;2023-04-15T03:28:51;100935.00;;;7.33;94.08
5126;BME280;63008;53.112;8.896;2023-04-15T03:30:52;100946.91;;;7.37;94.27
5126;BME280;63008;53.112;8.896;2023-04-15T03:32:53;100944.00;;;7.33;94.16
5126;BME280;63008;53.112;8.896;2023-04-15T03:34:53;100939.66;;;7.32;94.62
5126;BME280;63008;53.112;8.896;2023-04-15T03:36:55;100935.63;;;7.30;94.81
5126;BME280;63008;53.112;8.896;2023-04-15T03:38:56;100940.56;;;7.28;94.68
5126;BME280;63008;53.112;8.896;2023-04-15T03:40:57;100936.41;;;7.30;95.09
5126;BME280;63008;53.112;8.896;2023-04-15T03:42:58;100933.38;;;7.32;94.86
5126;BME280;63008;53.112;8.896;2023-04-15T03:44:59;100934.50;;;7.31;95.09
5126;BME280;63008;53.112;8.896;2023-04-15T03:47:00;100938.06;;;7.31;95.24
5126;BME280;63008;53.112;8.896;2023-04-15T03:49:01;100937.72;;;7.33;95.18
5126;BME280;63008;53.112;8.896;2023-04-15T03:51:02;100938.13;;;7.40;95.26
5126;BME280;63008;53.112;8.896;2023-04-15T03:53:03;100933.25;;;7.37;95.12
5126;BME280;63008;53.112;8.896;2023-04-15T03:55:04;100938.41;;;7.38;95.48
5126;BME280;63008;53.112;8.896;2023-04-15T03:57:05;100938.91;;;7.40;95.56
5126;BME280;63008;53.112;8.896;2023-04-15T03:59:06;100934.09;;;7.37;95.75
5126;BME280;63008;53.112;8.896;2023-04-15T04:01:07;100927.09;;;7.45;95.63
5126;BME280;63008;53.112;8.896;2023-04-15T04:03:08;100925.97;;;7.46;95.28
5126;BME280;63008;53.112;8.896;2023-04-15T04:05:09;100931.44;;;7.46;95.66
5126;BME280;63008;53.112;8.896;2023-04-15T04:07:17;100927.09;;;7.45;95.66
5126;BME280;63008;53.112;8.896;2023-04-15T04:09:18;100935.28;;;7.45;95.88
5126;BME280;63008;53.112;8.896;2023-04-15T04:11:19;100939.22;;;7.39;96.01
5126;BME280;63008;53.112;8.896;2023-04-15T04:13:20;100937.81;;;7.41;96.56
5126;BME280;63008;53.112;8.896;2023-04-15T04:15:21;100936.69;;;7.42;96.38
5126;BME280;63008;53.112;8.896;2023-04-15T04:17:22;100940.25;;;7.43;96.33
5126;BME280;63008;53.112;8.896;2023-04-15T04:19:23;100944.09;;;7.42;96.63
5126;BME280;63008;53.112;8.896;2023-04-15T04:21:24;100943.97;;;7.47;96.24
5126;BME280;63008;53.112;8.896;2023-04-15T04:23:26;100939.41;;;7.42;96.54
5126;BME280;63008;53.112;8.896;2023-04-15T04:25:27;100942.63;;;7.44;96.81
5126;BME280;63008;53.112;8.896;2023-04-15T04:27:28;100949.84;;;7.40;96.96
5126;BME280;63008;53.112;8.896;2023-04-15T04:29:29;100948.09;;;7.44;96.96
5126;BME280;63008;53.112;8.896;2023-04-15T04:31:30;100949.06;;;7.40;96.87
5126;BME280;63008;53.112;8.896;2023-04-15T04:33:31;100941.34;;;7.42;97.40
5126;BME280;63008;53.112;8.896;2023-04-15T04:35:32;100954.19;;;7.41;97.26
5126;BME280;63008;53.112;8.896;2023-04-15T04:37:34;100950.47;;;7.37;97.57
5126;BME280;63008;53.112;8.896;2023-04-15T04:39:35;100943.75;;;7.43;97.81
5126;BME280;63008;53.112;8.896;2023-04-15T04:41:36;100948.31;;;7.48;97.74
5126;BME280;63008;53.112;8.896;2023-04-15T04:43:37;100949.72;;;7.45;97.78
5126;BME280;63008;53.112;8.896;2023-04-15T04:45:38;100948.44;;;7.43;98.07
5126;BME280;63008;53.112;8.896;2023-04-15T04:47:39;100945.06;;;7.46;98.17
5126;BME280;63008;53.112;8.896;2023-04-15T04:49:40;100940.84;;;7.40;98.30
5126;BME280;63008;53.112;8.896;2023-04-15T04:51:41;100942.16;;;7.42;98.77
5126;BME280;63008;53.112;8.896;2023-04-15T04:53:42;100939.28;;;7.47;98.50
5126;BME280;63008;53.112;8.896;2023-04-15T04:55:43;100944.81;;;7.56;99.08
5126;BME280;63008;53.112;8.896;2023-04-15T04:57:44;100947.25;;;7.57;98.80
5126;BME280;63008;53.112;8.896;2023-04-15T04:59:45;100947.88;;;7.54;98.68
5126;BME280;63008;53.112;8.896;2023-04-15T05:01:46;100951.84;;;7.48;98.89
5126;BME280;63008;53.112;8.896;2023-04-15T05:03:47;100959.59;;;7.55;99.04
5126;BME280;63008;53.112;8.896;2023-04-15T05:05:48;100954.59;;;7.48;99.23
5126;BME280;63008;53.112;8.896;2023-04-15T05:07:49;100957.81;;;7.50;99.48
5126;BME280;63008;53.112;8.896;2023-04-15T05:09:50;100964.06;;;7.51;99.62
5126;BME280;63008;53.112;8.896;2023-04-15T05:11:51;100957.88;;;7.59;99.80
5126;BME280;63008;53.112;8.896;2023-04-15T05:13:52;100958.38;;;7.61;99.54
5126;BME280;63008;53.112;8.896;2023-04-15T05:15:53;100958.81;;;7.54;99.80
5126;BME280;63008;53.112;8.896;2023-04-15T05:17:54;100957.69;;;7.55;100.00
5126;BME280;63008;53.112;8.896;2023-04-15T05:19:55;100959.59;;;7.55;100.00
5126;BME280;63008;53.112;8.896;2023-04-15T05:21:56;100953.34;;;7.54;100.00
5126;BME280;63008;53.112;8.896;2023-04-15T05:23:57;100957.97;;;7.54;100.00
5126;BME280;63008;53.112;8.896;2023-04-15T05:25:58;100967.19;;;7.58;100.00
5126;BME280;63008;53.112;8.896;2023-04-15T05:27:59;100960.28;;;7.60;100.00
5126;BME280;63008;53.112;8.896;2023-04-15T05:30:00;100963.22;;;7.64;100.00
5126;BME280;63008;53.112;8.896;2023-04-15T05:32:01;100959.59;;;7.55;100.00
5126;BME280;63008;53.112;8.896;2023-04-15T05:34:02;100961.91;;;7.61;100.00
5126;BME280;63008;53.112;8.896;2023-04-15T05:36:05;100962.81;;;7.57;100.00
5126;BME280;63008;53.112;8.896;2023-04-15T05:38:06;100960.28;;;7.60;100.00
5126;BME280;63008;53.112;8.896;2023-04-15T05:40:07;100970.50;;;7.68;100.00
5126;BME280;63008;53.112;8.896;2023-04-15T05:42:10;100967.75;;;7.68;100.00
5126;BME280;63008;53.112;8.896;2023-04-15T05:44:11;100966.75;;;7.64;100.00
5126;BME280;63008;53.112;8.896;2023-04-15T05:46:12;100970.59;;;7.63;100.00
5126;BME280;63008;53.112;8.896;2023-04-15T05:48:13;100974.13;;;7.64;100.00
5126;BME280;63008;53.112;8.896;2023-04-15T05:50:14;100975.47;;;7.66;100.00
5126;BME280;63008;53.112;8.896;2023-04-15T05:52:15;100972.41;;;7.68;100.00
5126;BME280;63008;53.112;8.896;2023-04-15T05:54:16;100965.94;;;7.64;100.00
5126;BME280;63008;53.112;8.896;2023-04-15T05:56:18;100973.53;;;7.67;100.00
5126;BME280;63008;53.112;8.896;2023-04-15T05:58:20;100977.06;;;7.67;100.00
5126;BME280;63008;53.112;8.896;2023-04-15T06:00:21;100971.09;;;7.65;100.00
5126;BME280;63008;53.112;8.896;2023-04-15T06:02:22;100968.88;;;7.67;100.00
5126;BME280;63008;53.112;8.896;2023-04-15T06:04:23;100974.84;;;7.69;100.00
5126;BME280;63008;53.112;8.896;2023-04-15T06:06:24;100974.22;;;7.72;100.00
5126;BME280;63008;53.112;8.896;2023-04-15T06:08:25;100983.72;;;7.75;100.00
5126;BME280;63008;53.112;8.896;2023-04-15T06:10:26;100975.19;;;7.76;100.00
5126;BME280;63008;53.112;8.896;2023-04-15T06:12:27;100970.44;;;7.82;100.00
5126;BME280;63008;53.112;8.896;2023-04-15T06:14:28;100982.16;;;7.82;100.00
5126;BME280;63008;53.112;8.896;2023-04-15T06:16:29;100980.72;;;7.85;100.00
5126;BME280;63008;53.112;8.896;2023-04-15T06:18:30;100977.72;;;7.86;100.00
5126;BME280;63008;53.112;8.896;2023-04-15T06:20:31;100980.31;;;7.91;100.00
5126;BME280;63008;53.112;8.896;2023-04-15T06:22:32;100984.94;;;7.91;100.00
5126;BME280;63008;53.112;8.896;2023-04-15T06:24:33;100984.84;;;7.96;100.00
5126;BME280;63008;53.112;8.896;2023-04-15T06:26:36;100989.97;;;7.97;100.00
5126;BME280;63008;53.112;8.896;2023-04-15T06:28:37;100998.31;;;7.92;100.00
5126;BME280;63008;53.112;8.896;2023-04-15T06:30:38;100993.47;;;7.89;100.00
5126;BME280;63008;53.112;8.896;2023-04-15T06:32:39;100996.91;;;7.95;100.00
5126;BME280;63008;53.112;8.896;2023-04-15T06:34:40;101002.03;;;7.96;100.00
5126;BME280;63008;53.112;8.896;2023-04-15T06:36:41;101011.16;;;7.92;100.00
5126;BME280;63008;53.112;8.896;2023-04-15T06:38:42;101001.34;;;7.91;100.00
5126;BME280;63008;53.112;8.896;2023-04-15T06:40:43;101004.59;;;7.93;100.00
5126;BME280;63008;53.112;8.896;2023-04-15T06:42:44;101002.34;;;7.95;100.00
5126;BME280;63008;53.112;8.896;2023-04-15T06:44:45;101012.03;;;8.01;100.00
5126;BME280;63008;53.112;8.896;2023-04-15T06:46:46;101014.47;;;8.02;100.00
5126;BME280;63008;53.112;8.896;2023-04-15T06:48:47;101013.22;;;8.08;100.00
5126;BME280;63008;53.112;8.896;2023-04-15T06:50:48;101012.72;;;8.06;100.00
5126;BME280;63008;53.112;8.896;2023-04-15T06:52:55;101016.38;;;8.02;100.00
5126;BME280;63008;53.112;8.896;2023-04-15T06:54:57;101018.69;;;8.08;100.00
5126;BME280;63008;53.112;8.896;2023-04-15T06:56:59;101020.50;;;8.13;100.00
5126;BME280;63008;53.112;8.896;2023-04-15T06:59:02;101021.78;;;8.15;100.00
5126;BME280;63008;53.112;8.896;2023-04-15T07:01:04;101017.06;;;8.07;100.00
5126;BME280;63008;53.112;8.896;2023-04-15T07:03:05;101019.47;;;8.09;100.00
5126;BME280;63008;53.112;8.896;2023-04-15T07:05:06;101013.91;;;8.14;100.00
5126;BME280;63008;53.112;8.896;2023-04-15T07:07:07;101011.19;;;8.14;100.00
5126;BME280;63008;53.112;8.896;2023-04-15T07:09:09;101010.34;;;8.13;100.00
5126;BME280;63008;53.112;8.896;2023-04-15T07:11:10;101004.00;;;8.18;100.00
5126;BME280;63008;53.112;8.896;2023-04-15T07:13:11;101009.31;;;8.23;100.00
5126;BME280;63008;53.112;8.896;2023-04-15T07:15:12;100999.69;;;8.25;100.00
5126;BME280;63008;53.112;8.896;2023-04-15T07:17:14;101009.81;;;8.25;100.00
5126;BME280;63008;53.112;8.896;2023-04-15T07:19:15;101013.88;;;8.27;100.00
5126;BME280;63008;53.112;8.896;2023-04-15T07:21:16;101009.72;;;8.30;100.00
5126;BME280;63008;53.112;8.896;2023-04-15T07:23:17;101014.06;;;8.31;100.00
5126;BME280;63008;53.112;8.896;2023-04-15T07:25:18;101008.09;;;8.29;100.00
5126;BME280;63008;53.112;8.896;2023-04-15T07:27:19;101010.19;;;8.32;100.00
5126;BME280;63008;53.112;8.896;2023-04-15T07:29:20;101011.97;;;8.36;100.00
5126;BME280;63008;53.112;8.896;2023-04-15T07:31:21;101006.66;;;8.31;100.00
5126;BME280;63008;53.112;8.896;2023-04-15T07:33:22;101016.66;;;8.36;100.00
5126;BME280;63008;53.112;8.896;2023-04-15T07:35:23;101016.50;;;8.41;100.00
5126;BME280;63008;53.112;8.896;2023-04-15T07:37:29;101025.84;;;8.40;100.00
5126;BME280;63008;53.112;8.896;2023-04-15T07:39:30;101028.75;;;8.43;100.00
5126;BME280;63008;53.112;8.896;2023-04-15T07:41:31;101033.13;;;8.44;100.00
5126;BME280;63008;53.112;8.896;2023-04-15T07:43:32;101036.16;;;8.43;100.00
5126;BME280;63008;53.112;8.896;2023-04-15T07:45:33;101030.09;;;8.46;100.00
5126;BME280;63008;53.112;8.896;2023-04-15T07:47:35;101037.16;;;8.47;100.00
5126;BME280;63008;53.112;8.896;2023-04-15T07:49:36;101032.69;;;8.51;100.00
5126;BME280;63008;53.112;8.896;2023-04-15T07:51:37;101030.56;;;8.48;100.00
5126;BME280;63008;53.112;8.896;2023-04-15T07:53:38;101028.19;;;8.55;100.00
5126;BME280;63008;53.112;8.896;2023-04-15T07:55:39;101032.97;;;8.49;100.00
5126;BME280;63008;53.112;8.896;2023-04-15T07:57:41;101027.22;;;8.51;100.00
5126;BME280;63008;53.112;8.896;2023-04-15T07:59:42;101034.28;;;8.52;100.00
5126;BME280;63008;53.112;8.896;2023-04-15T08:01:43;101029.81;;;8.56;100.00
5126;BME280;63008;53.112;8.896;2023-04-15T08:03:44;101028.81;;;8.52;100.00
5126;BME280;63008;53.112;8.896;2023-04-15T08:05:45;101025.59;;;8.50;100.00
5126;BME280;63008;53.112;8.896;2023-04-15T08:07:47;101023.53;;;8.55;100.00
5126;BME280;63008;53.112;8.896;2023-04-15T08:09:48;101025.94;;;8.57;100.00
5126;BME280;63008;53.112;8.896;2023-04-15T08:11:49;101025.31;;;8.60;100.00
5126;BME280;63008;53.112;8.896;2023-04-15T08:13:51;101024.19;;;8.61;100.00
5126;BME280;63008;53.112;8.896;2023-04-15T08:16:19;101026.75;;;8.57;100.00
5126;BME280;63008;53.112;8.896;2023-04-15T08:18:20;101030.00;;;8.59;100.00
5126;BME280;63008;53.112;8.896;2023-04-15T08:20:21;101026.13;;;8.60;100.00
5126;BME280;63008;53.112;8.896;2023-04-15T08:22:22;101037.25;;;8.64;100.00
5126;BME280;63008;53.112;8.896;2023-04-15T08:24:23;101038.06;;;8.64;100.00
5126;BME280;63008;53.112;8.896;2023-04-15T08:26:25;101043.03;;;8.62;100.00
5126;BME280;63008;53.112;8.896;2023-04-15T08:28:26;101036.44;;;8.63;100.00
5126;BME280;63008;53.112;8.896;2023-04-15T08:30:27;101033.41;;;8.65;100.00
5126;BME280;63008;53.112;8.896;2023-04-15T08:32:28;101039.03;;;8.68;100.00
5126;BME280;63008;53.112;8.896;2023-04-15T08:34:29;101043.09;;;8.71;100.00
5126;BME280;63008;53.112;8.896;2023-04-15T08:36:30;101040.97;;;8.68;100.00
5126;BME280;63008;53.112;8.896;2023-04-15T08:38:32;101032.13;;;8.71;100.00
5126;BME280;63008;53.112;8.896;2023-04-15T08:40:40;101046.50;;;8.76;100.00
5126;BME280;63008;53.112;8.896;2023-04-15T08:42:43;101036.69;;;8.75;100.00
5126;BME280;63008;53.112;8.896;2023-04-15T08:44:48;101033.78;;;8.80;100.00
5126;BME280;63008;53.112;8.896;2023-04-15T08:46:51;101040.56;;;8.83;100.00
5126;BME280;63008;53.112;8.896;2023-04-15T08:48:55;101045.38;;;8.77;100.00
5126;BME280;63008;53.112;8.896;2023-04-15T08:50:57;101043.31;;;8.83;100.00
5126;BME280;63008;53.112;8.896;2023-04-15T08:52:58;101040.25;;;8.84;100.00
5126;BME280;63008;53.112;8.896;2023-04-15T08:55:01;101045.56;;;8.89;100.00
5126;BME280;63008;53.112;8.896;2023-04-15T08:57:02;101047.22;;;8.90;100.00
5126;BME280;63008;53.112;8.896;2023-04-15T08:59:04;101041.38;;;8.83;100.00
5126;BME280;63008;53.112;8.896;2023-04-15T09:01:05;101049.28;;;8.85;100.00
5126;BME280;63008;53.112;8.896;2023-04-15T09:03:07;101047.22;;;8.90;100.00
5126;BME280;63008;53.112;8.896;2023-04-15T09:05:08;101050.09;;;8.94;100.00
5126;BME280;63008;53.112;8.896;2023-04-15T09:07:09;101051.88;;;8.90;100.00
5126;BME280;63008;53.112;8.896;2023-04-15T09:09:11;101057.03;;;8.91;100.00
5126;BME280;63008;53.112;8.896;2023-04-15T09:11:13;101057.53;;;8.93;100.00
5126;BME280;63008;53.112;8.896;2023-04-15T09:13:14;101064.16;;;9.01;100.00
5126;BME280;63008;53.112;8.896;2023-04-15T09:15:16;101069.16;;;8.99;100.00
5126;BME280;63008;53.112;8.896;2023-04-15T09:17:18;101066.06;;;9.00;100.00
5126;BME280;63008;53.112;8.896;2023-04-15T09:19:22;101066.41;;;8.99;100.00
5126;BME280;63008;53.112;8.896;2023-04-15T09:21:23;101063.53;;;9.03;100.00
5126;BME280;63008;53.112;8.896;2023-04-15T09:23:24;101075.44;;;9.07;100.00
5126;BME280;63008;53.112;8.896;2023-04-15T09:25:26;101062.41;;;9.04;100.00
5126;BME280;63008;53.112;8.896;2023-04-15T09:27:28;101075.16;;;9.09;100.00
5126;BME280;63008;53.112;8.896;2023-04-15T09:29:29;101076.75;;;9.10;100.00
5126;BME280;63008;53.112;8.896;2023-04-15T09:31:30;101082.72;;;9.12;100.00
5126;BME280;63008;53.112;8.896;2023-04-15T09:33:31;101083.22;;;9.14;100.00
5126;BME280;63008;53.112;8.896;2023-04-15T09:35:32;101084.47;;;9.08;100.00
5126;BME280;63008;53.112;8.896;2023-04-15T09:37:34;101089.63;;;9.09;100.00
5126;BME280;63008;53.112;8.896;2023-04-15T09:39:49;101098.97;;;9.08;100.00
5126;BME280;63008;53.112;8.896;2023-04-15T09:42:06;101095.28;;;9.13;100.00
5126;BME280;63008;53.112;8.896;2023-04-15T09:44:24;101092.84;;;9.11;100.00
5126;BME280;63008;53.112;8.896;2023-04-15T09:46:41;101103.50;;;9.13;100.00
5126;BME280;63008;53.112;8.896;2023-04-15T09:48:42;101099.81;;;9.17;100.00
5126;BME280;63008;53.112;8.896;2023-04-15T09:50:44;101104.78;;;9.15;100.00
5126;BME280;63008;53.112;8.896;2023-04-15T09:52:45;101100.13;;;9.16;100.00
5126;BME280;63008;53.112;8.896;2023-04-15T09:54:46;101099.81;;;9.17;100.00
5126;BME280;63008;53.112;8.896;2023-04-15T09:56:47;101099.69;;;9.22;100.00
5126;BME280;63008;53.112;8.896;2023-04-15T09:58:55;101100.66;;;9.26;100.00
5126;BME280;63008;53.112;8.896;2023-04-15T10:00:57;101104.22;;;9.27;100.00
5126;BME280;63008;53.112;8.896;2023-04-15T10:02:58;101100.50;;;9.31;100.00
5126;BME280;63008;53.112;8.896;2023-04-15T10:05:00;101104.84;;;9.32;100.00
5126;BME280;63008;53.112;8.896;2023-04-15T10:07:02;101104.72;;;9.37;100.00
5126;BME280;63008;53.112;8.896;2023-04-15T10:09:04;101102.94;;;9.33;100.00
5126;BME280;63008;53.112;8.896;2023-04-15T10:11:06;101107.59;;;9.32;100.00
5126;BME280;63008;53.112;8.896;2023-04-15T10:13:08;101099.72;;;9.31;100.00
5126;BME280;63008;53.112;8.896;2023-04-15T10:15:14;101105.84;;;9.36;100.00
5126;BME280;63008;53.112;8.896;2023-04-15T10:17:17;101105.03;;;9.36;100.00
5126;BME280;63008;53.112;8.896;2023-04-15T10:19:21;101098.44;;;9.37;100.00
5126;BME280;63008;53.112;8.896;2023-04-15T10:21:27;101109.34;;;9.28;100.00
5126;BME280;63008;53.112;8.896;2023-04-15T10:23:28;101114.53;;;9.30;100.00
5126;BME280;63008;53.112;8.896;2023-04-15T10:25:29;101110.34;;;9.32;100.00
5126;BME280;63008;53.112;8.896;2023-04-15T10:27:30;101110.19;;;9.29;100.00
5126;BME280;63008;53.112;8.896;2023-04-15T10:29:31;101109.06;;;9.30;100.00
5126;BME280;63008;53.112;8.896;2023-04-15T10:31:32;101110.00;;;9.25;100.00
5126;BME280;63008;53.112;8.896;2023-04-15T10:33:34;101118.41;;;9.29;100.00
5126;BME280;63008;53.112;8.896;2023-04-15T10:35:36;101116.94;;;9.31;100.00
5126;BME280;63008;53.112;8.896;2023-04-15T10:37:37;101118.69;;;9.27;100.00
5126;BME280;63008;53.112;8.896;2023-04-15T10:39:42;101116.44;;;9.29;100.00
5126;BME280;63008;53.112;8.896;2023-04-15T10:41:44;101121.94;;;9.29;100.00
5126;BME280;63008;53.112;8.896;2023-04-15T10:43:47;101112.94;;;9.37;100.00
5126;BME280;63008;53.112;8.896;2023-04-15T10:45:52;101116.63;;;9.33;100.00
5126;BME280;63008;53.112;8.896;2023-04-15T10:47:57;101115.69;;;9.37;100.00
5126;BME280;63008;53.112;8.896;2023-04-15T10:50:00;101120.31;;;9.28;100.00